createdAt,value
2019-04-30T00:00:45.495Z,11.13
2019-04-30T00:03:19.440Z,11.07
2019-04-30T00:05:49.319Z,11.11
2019-04-30T00:08:16.161Z,11.15
2019-04-30T00:10:45.396Z,11.08
2019-04-30T00:13:17.460Z,10.97
2019-04-30T00:15:45.242Z,10.99
2019-04-30T00:18:15.508Z,10.91
2019-04-30T00:20:45.356Z,10.90
2019-04-30T00:23:17.812Z,10.88
2019-04-30T00:25:46.023Z,10.82
2019-04-30T00:28:15.543Z,10.92
2019-04-30T00:30:47.703Z,10.93
2019-04-30T00:33:15.225Z,10.89
2019-04-30T00:35:45.355Z,10.97
2019-04-30T00:38:15.164Z,10.93
2019-04-30T00:40:45.025Z,10.88
2019-04-30T00:43:15.460Z,10.98
2019-04-30T00:45:47.094Z,10.92
2019-04-30T00:48:19.406Z,10.90
2019-04-30T00:50:45.754Z,10.92
2019-04-30T00:53:16.475Z,10.90
2019-04-30T00:55:48.377Z,10.95
2019-04-30T00:58:17.685Z,11.08
2019-04-30T01:00:49.604Z,11.12
2019-04-30T01:03:19.695Z,11.09
2019-04-30T01:05:48.287Z,11.05
2019-04-30T01:08:21.043Z,11.13
2019-04-30T01:10:46.972Z,11.05
2019-04-30T01:13:15.420Z,11.04
2019-04-30T01:15:48.207Z,11.01
2019-04-30T01:18:14.112Z,11.06
2019-04-30T01:20:42.505Z,11.05
2019-04-30T01:23:14.011Z,10.96
2019-04-30T01:25:43.203Z,11.04
2019-04-30T01:28:16.467Z,11.01
2019-04-30T01:30:43.386Z,11.02
2019-04-30T01:33:12.082Z,10.98
2019-04-30T01:35:40.664Z,10.98
2019-04-30T01:38:12.716Z,11.00
2019-04-30T01:40:42.829Z,11.02
2019-04-30T01:43:12.552Z,11.08
2019-04-30T01:45:40.944Z,11.12
2019-04-30T01:48:12.565Z,10.96
2019-04-30T01:50:42.074Z,10.96
2019-04-30T01:53:13.131Z,10.98
2019-04-30T01:55:59.224Z,11.06
2019-04-30T01:58:30.190Z,11.01
2019-04-30T02:01:00.289Z,11.04
2019-04-30T02:03:29.182Z,11.08
2019-04-30T02:05:59.520Z,11.14
2019-04-30T02:08:29.533Z,10.88
2019-04-30T02:10:59.438Z,10.96
2019-04-30T02:13:31.195Z,10.99
2019-04-30T02:15:59.315Z,10.97
2019-04-30T02:18:29.546Z,11.04
2019-04-30T02:20:59.485Z,11.08
2019-04-30T02:23:29.783Z,11.05
2019-04-30T02:25:58.923Z,11.01
2019-04-30T02:28:28.988Z,11.05
2019-04-30T02:31:00.298Z,10.96
2019-04-30T02:33:30.625Z,10.98
2019-04-30T02:36:04.021Z,10.89
2019-04-30T02:38:34.331Z,10.94
2019-04-30T02:41:03.612Z,11.00
2019-04-30T02:43:33.632Z,11.05
2019-04-30T02:46:03.631Z,10.93
2019-04-30T02:48:33.693Z,10.91
2019-04-30T02:51:04.844Z,10.98
2019-04-30T02:54:03.567Z,11.00
2019-04-30T02:56:32.153Z,10.97
2019-04-30T02:59:03.876Z,10.98
2019-04-30T03:01:30.822Z,11.02
2019-04-30T03:03:59.882Z,11.02
2019-04-30T03:06:30.364Z,10.92
2019-04-30T03:09:01.076Z,10.89
2019-04-30T03:11:30.131Z,10.90
2019-04-30T03:13:59.334Z,10.88
2019-04-30T03:16:32.558Z,11.00
2019-04-30T03:19:02.572Z,11.02
2019-04-30T03:21:50.864Z,11.02
2019-04-30T03:24:20.217Z,11.04
2019-04-30T03:26:49.940Z,11.02
2019-04-30T03:29:23.422Z,10.87
2019-04-30T03:31:52.275Z,10.87
2019-04-30T03:34:25.282Z,10.90
2019-04-30T03:36:50.413Z,10.87
2019-04-30T03:39:19.892Z,10.92
2019-04-30T03:41:50.167Z,10.84
2019-04-30T03:44:25.575Z,10.85
2019-04-30T03:46:49.787Z,10.84
2019-04-30T03:49:20.223Z,10.86
2019-04-30T03:51:49.919Z,10.85
2019-04-30T03:54:19.246Z,10.88
2019-04-30T03:56:50.213Z,10.85
2019-04-30T03:59:19.968Z,10.85
2019-04-30T04:02:02.300Z,10.88
2019-04-30T04:04:32.345Z,10.86
2019-04-30T04:07:14.491Z,10.92
2019-04-30T04:10:01.666Z,10.94
2019-04-30T04:12:30.715Z,10.89
2019-04-30T04:15:03.386Z,10.84
2019-04-30T04:17:31.446Z,10.86
2019-04-30T04:19:59.971Z,10.89
2019-04-30T04:22:30.656Z,10.89
2019-04-30T04:25:00.120Z,10.86
2019-04-30T04:27:30.130Z,10.89
2019-04-30T04:30:01.082Z,10.88
2019-04-30T04:32:30.804Z,10.88
2019-04-30T04:35:00.193Z,10.93
2019-04-30T04:37:30.130Z,10.92
2019-04-30T04:39:59.578Z,10.92
2019-04-30T04:42:32.500Z,11.00
2019-04-30T04:44:59.704Z,11.01
2019-04-30T04:47:30.853Z,10.98
2019-04-30T04:50:00.623Z,11.06
2019-04-30T04:52:31.375Z,11.10
2019-04-30T04:55:00.438Z,11.23
2019-04-30T04:57:30.350Z,11.38
2019-04-30T05:00:06.402Z,11.42
2019-04-30T05:02:33.910Z,11.43
2019-04-30T05:05:02.334Z,11.40
2019-04-30T05:07:30.783Z,11.36
2019-04-30T05:10:01.002Z,11.29
2019-04-30T05:12:29.847Z,11.22
2019-04-30T05:14:59.744Z,11.15
2019-04-30T05:17:31.860Z,11.13
2019-04-30T05:19:59.351Z,11.13
2019-04-30T05:22:29.386Z,11.18
2019-04-30T05:24:58.959Z,11.23
2019-04-30T05:27:27.515Z,11.33
2019-04-30T05:29:55.953Z,11.43
2019-04-30T05:32:24.376Z,11.54
2019-04-30T05:34:52.818Z,11.57
2019-04-30T05:37:22.511Z,11.68
2019-04-30T05:39:51.044Z,11.84
2019-04-30T05:42:19.468Z,12.05
2019-04-30T05:44:49.710Z,12.11
2019-04-30T05:47:19.573Z,12.20
2019-04-30T05:49:48.887Z,12.48
2019-04-30T05:52:19.712Z,13.13
2019-04-30T05:54:48.768Z,13.62
2019-04-30T05:57:19.550Z,13.55
2019-04-30T05:59:48.722Z,13.55
2019-04-30T06:02:19.405Z,13.33
2019-04-30T06:04:48.927Z,12.81
2019-04-30T06:07:18.933Z,12.64
2019-04-30T06:09:50.251Z,12.66
2019-04-30T06:12:39.242Z,12.68
2019-04-30T06:15:25.765Z,12.73
2019-04-30T06:18:00.766Z,12.75
2019-04-30T06:20:24.976Z,12.73
2019-04-30T06:22:54.244Z,13.14
2019-04-30T06:25:31.750Z,13.34
2019-04-30T06:27:53.174Z,13.35
2019-04-30T06:30:21.674Z,13.36
2019-04-30T06:32:50.182Z,14.26
2019-04-30T06:35:19.378Z,14.79
2019-04-30T06:37:48.920Z,16.09
2019-04-30T06:40:19.601Z,16.10
2019-04-30T06:42:49.518Z,14.85
2019-04-30T06:45:19.166Z,15.61
2019-04-30T06:47:49.076Z,16.46
2019-04-30T06:50:19.420Z,16.53
2019-04-30T06:52:56.266Z,15.78
2019-04-30T06:55:19.251Z,15.84
2019-04-30T06:57:49.704Z,16.14
2019-04-30T07:00:20.702Z,15.62
2019-04-30T07:02:49.435Z,16.00
2019-04-30T07:05:18.592Z,16.34
2019-04-30T07:08:09.227Z,16.28
2019-04-30T07:10:36.219Z,16.68
2019-04-30T07:13:12.323Z,16.64
2019-04-30T07:15:40.833Z,16.77
2019-04-30T07:18:09.271Z,16.54
2019-04-30T07:20:38.746Z,16.95
2019-04-30T07:23:09.200Z,15.07
2019-04-30T07:25:39.124Z,16.17
2019-04-30T07:28:09.059Z,15.93
2019-04-30T07:30:39.359Z,15.24
2019-04-30T07:33:09.551Z,14.60
2019-04-30T07:35:39.774Z,14.04
2019-04-30T07:38:09.353Z,15.48
2019-04-30T07:40:39.059Z,16.15
2019-04-30T07:43:09.103Z,15.03
2019-04-30T07:45:39.304Z,15.84
2019-04-30T07:48:09.353Z,16.40
2019-04-30T07:50:40.489Z,16.24
2019-04-30T07:53:11.216Z,16.09
2019-04-30T07:55:39.293Z,16.72
2019-04-30T07:58:09.074Z,17.20
2019-04-30T08:00:40.249Z,17.53
2019-04-30T08:03:10.712Z,16.88
2019-04-30T08:05:41.134Z,18.09
2019-04-30T08:08:20.799Z,18.02
2019-04-30T08:10:39.752Z,17.97
2019-04-30T08:13:13.907Z,16.78
2019-04-30T08:15:42.157Z,16.95
2019-04-30T08:18:08.788Z,16.39
2019-04-30T08:20:39.210Z,16.19
2019-04-30T08:23:20.157Z,15.25
2019-04-30T08:25:39.072Z,15.25
2019-04-30T08:28:09.113Z,15.84
2019-04-30T08:30:39.122Z,16.73
2019-04-30T08:33:09.421Z,17.37
2019-04-30T08:35:39.795Z,17.07
2019-04-30T08:38:10.582Z,17.24
2019-04-30T08:40:43.109Z,17.73
2019-04-30T08:43:09.552Z,17.04
2019-04-30T08:45:38.557Z,17.47
2019-04-30T08:48:08.991Z,17.26
2019-04-30T08:50:39.317Z,16.07
2019-04-30T08:53:07.684Z,15.63
2019-04-30T08:55:36.108Z,15.79
2019-04-30T08:58:09.803Z,16.07
2019-04-30T09:00:35.104Z,15.92
2019-04-30T09:03:03.609Z,16.73
2019-04-30T09:05:36.295Z,17.08
2019-04-30T09:08:06.545Z,17.95
2019-04-30T09:10:34.981Z,17.46
2019-04-30T09:13:03.399Z,17.78
2019-04-30T09:15:31.795Z,17.83
2019-04-30T09:18:06.349Z,17.99
2019-04-30T09:20:31.501Z,18.37
2019-04-30T09:22:59.968Z,19.17
2019-04-30T09:25:28.812Z,19.64
2019-04-30T09:27:58.815Z,19.81
2019-04-30T09:30:27.377Z,19.47
2019-04-30T09:32:55.776Z,19.98
2019-04-30T09:35:24.302Z,20.74
2019-04-30T09:37:58.934Z,19.24
2019-04-30T09:40:23.013Z,18.72
2019-04-30T09:42:51.422Z,18.10
2019-04-30T09:45:19.884Z,17.73
2019-04-30T09:47:50.406Z,19.06
2019-04-30T09:50:18.899Z,18.88
2019-04-30T09:52:49.526Z,18.65
2019-04-30T09:55:19.341Z,18.10
2019-04-30T09:57:48.836Z,17.41
2019-04-30T10:00:19.398Z,18.01
2019-04-30T10:02:48.861Z,18.47
2019-04-30T10:05:19.298Z,17.00
2019-04-30T10:07:49.313Z,18.24
2019-04-30T10:10:19.792Z,17.06
2019-04-30T10:12:49.279Z,17.84
2019-04-30T10:15:29.013Z,18.58
2019-04-30T10:17:58.188Z,18.70
2019-04-30T10:20:43.750Z,19.72
2019-04-30T10:23:12.155Z,18.52
2019-04-30T10:25:40.634Z,18.79
2019-04-30T10:28:09.975Z,19.77
2019-04-30T10:30:38.631Z,19.75
2019-04-30T10:33:07.218Z,18.55
2019-04-30T10:35:36.060Z,18.95
2019-04-30T10:38:05.362Z,18.42
2019-04-30T10:40:33.827Z,19.26
2019-04-30T10:43:02.526Z,19.78
2019-04-30T10:45:32.035Z,19.78
2019-04-30T10:48:00.589Z,20.36
2019-04-30T10:50:28.977Z,20.37
2019-04-30T10:52:59.095Z,19.54
2019-04-30T10:55:28.709Z,20.85
2019-04-30T10:57:59.349Z,21.91
2019-04-30T11:01:01.672Z,22.23
2019-04-30T11:03:29.183Z,22.66
2019-04-30T11:05:58.584Z,21.33
2019-04-30T11:08:27.096Z,20.33
2019-04-30T11:10:55.675Z,20.04
2019-04-30T11:13:24.263Z,20.62
2019-04-30T11:15:52.629Z,20.65
2019-04-30T11:18:21.343Z,21.16
2019-04-30T11:20:50.063Z,20.08
2019-04-30T11:23:21.000Z,21.49
2019-04-30T11:25:51.032Z,21.64
2019-04-30T11:28:19.631Z,20.70
2019-04-30T11:30:50.233Z,20.20
2019-04-30T11:33:18.875Z,21.51
2019-04-30T11:35:50.305Z,22.50
2019-04-30T11:38:20.396Z,22.48
2019-04-30T11:40:48.622Z,22.45
2019-04-30T11:43:18.196Z,21.93
2019-04-30T11:45:56.382Z,21.27
2019-04-30T11:48:24.832Z,21.51
2019-04-30T11:50:53.241Z,21.58
2019-04-30T11:53:27.631Z,20.59
2019-04-30T11:55:52.098Z,20.54
2019-04-30T11:58:21.607Z,20.33
2019-04-30T12:00:50.628Z,20.35
2019-04-30T12:03:19.354Z,20.92
2019-04-30T12:05:49.071Z,20.79
2019-04-30T12:08:26.658Z,20.90
2019-04-30T12:11:05.715Z,21.98
2019-04-30T12:13:34.138Z,22.16
2019-04-30T12:16:02.754Z,22.00
2019-04-30T12:18:31.206Z,22.51
2019-04-30T12:20:59.657Z,20.29
2019-04-30T12:23:28.208Z,20.78
2019-04-30T12:25:56.580Z,20.15
2019-04-30T12:28:27.273Z,20.23
2019-04-30T12:30:55.274Z,19.49
2019-04-30T12:33:23.714Z,19.73
2019-04-30T12:35:52.225Z,20.08
2019-04-30T12:38:20.632Z,21.03
2019-04-30T12:40:49.194Z,21.03
2019-04-30T12:43:17.801Z,21.27
2019-04-30T12:45:46.307Z,21.68
2019-04-30T12:48:18.582Z,21.19
2019-04-30T12:50:50.723Z,20.55
2019-04-30T12:53:37.548Z,21.20
2019-04-30T12:56:13.654Z,21.90
2019-04-30T12:58:42.026Z,22.58
2019-04-30T13:01:11.110Z,22.54
2019-04-30T13:03:39.997Z,21.55
2019-04-30T13:06:11.017Z,22.24
2019-04-30T13:08:39.422Z,21.20
2019-04-30T13:11:12.272Z,21.02
2019-04-30T13:13:40.554Z,22.26
2019-04-30T13:16:08.913Z,22.82
2019-04-30T13:18:39.290Z,22.30
2019-04-30T13:21:08.628Z,22.30
2019-04-30T13:23:37.062Z,20.69
2019-04-30T13:26:05.558Z,20.34
2019-04-30T13:28:44.104Z,21.65
2019-04-30T13:31:12.604Z,21.83
2019-04-30T13:33:42.996Z,20.83
2019-04-30T13:36:11.598Z,20.29
2019-04-30T13:38:52.042Z,20.65
2019-04-30T13:41:29.783Z,21.11
2019-04-30T13:43:59.082Z,21.47
2019-04-30T13:46:28.490Z,21.86
2019-04-30T13:48:58.720Z,22.17
2019-04-30T13:51:27.139Z,22.11
2019-04-30T13:53:55.745Z,21.21
2019-04-30T13:56:24.206Z,21.53
2019-04-30T13:58:53.001Z,21.38
2019-04-30T14:01:21.581Z,21.47
2019-04-30T14:03:59.016Z,21.49
2019-04-30T14:06:29.134Z,20.97
2019-04-30T14:09:04.954Z,20.55
2019-04-30T14:11:33.777Z,19.81
2019-04-30T14:14:02.398Z,19.05
2019-04-30T14:16:30.872Z,19.57
2019-04-30T14:18:59.437Z,19.79
2019-04-30T14:21:33.135Z,20.26
2019-04-30T14:23:59.487Z,20.75
2019-04-30T14:26:29.210Z,20.42
2019-04-30T14:28:58.866Z,21.16
2019-04-30T14:31:28.786Z,21.44
2019-04-30T14:33:59.200Z,21.76
2019-04-30T14:36:29.188Z,21.34
2019-04-30T14:39:13.033Z,21.56
2019-04-30T14:41:31.870Z,22.03
2019-04-30T14:44:00.081Z,22.27
2019-04-30T14:46:39.806Z,21.84
2019-04-30T14:49:17.103Z,21.73
2019-04-30T14:51:46.248Z,22.27
2019-04-30T14:54:20.006Z,22.52
2019-04-30T14:57:06.532Z,22.05
2019-04-30T14:59:45.375Z,20.06
2019-04-30T15:02:15.462Z,19.72
2019-04-30T15:04:43.897Z,20.20
2019-04-30T15:07:12.487Z,19.75
2019-04-30T15:09:40.891Z,21.11
2019-04-30T15:12:09.687Z,21.50
2019-04-30T15:14:38.850Z,21.98
2019-04-30T15:17:08.413Z,22.28
2019-04-30T15:19:36.922Z,22.42
2019-04-30T15:22:05.503Z,22.27
2019-04-30T15:24:39.275Z,21.86
2019-04-30T15:27:09.203Z,21.71
2019-04-30T15:29:39.186Z,22.13
2019-04-30T15:32:08.673Z,22.56
2019-04-30T15:34:39.275Z,22.48
2019-04-30T15:37:18.662Z,22.52
2019-04-30T15:39:39.500Z,22.21
2019-04-30T15:42:10.103Z,22.16
2019-04-30T15:44:40.472Z,21.79
2019-04-30T15:47:09.324Z,21.67
2019-04-30T15:49:37.745Z,21.64
2019-04-30T15:52:06.405Z,21.74
2019-04-30T15:54:34.946Z,21.24
2019-04-30T15:57:04.478Z,21.50
2019-04-30T15:59:34.530Z,21.56
2019-04-30T16:02:13.396Z,21.90
2019-04-30T16:04:59.956Z,21.72
2019-04-30T16:07:29.530Z,20.54
2019-04-30T16:10:05.558Z,19.96
2019-04-30T16:12:45.183Z,20.49
2019-04-30T16:15:13.703Z,20.53
2019-04-30T16:17:43.770Z,20.53
2019-04-30T16:20:17.158Z,20.65
2019-04-30T16:22:45.553Z,20.49
2019-04-30T16:25:14.446Z,19.60
2019-04-30T16:27:42.851Z,19.49
2019-04-30T16:30:11.873Z,19.70
2019-04-30T16:32:40.415Z,19.23
2019-04-30T16:35:09.009Z,19.70
2019-04-30T16:37:38.774Z,19.73
2019-04-30T16:40:08.582Z,19.55
2019-04-30T16:42:39.008Z,19.66
2019-04-30T16:45:09.286Z,19.45
2019-04-30T16:47:37.888Z,19.16
2019-04-30T16:50:08.990Z,19.53
2019-04-30T16:52:39.364Z,19.04
2019-04-30T16:55:08.523Z,19.32
2019-04-30T16:57:39.570Z,19.05
2019-04-30T17:00:09.541Z,19.13
2019-04-30T17:02:39.569Z,19.03
2019-04-30T17:05:19.799Z,19.18
2019-04-30T17:07:55.393Z,18.65
2019-04-30T17:10:31.137Z,18.65
2019-04-30T17:13:03.959Z,18.59
2019-04-30T17:15:34.064Z,18.36
2019-04-30T17:18:03.150Z,18.35
2019-04-30T17:20:31.619Z,18.31
2019-04-30T17:23:00.048Z,18.27
2019-04-30T17:25:28.468Z,18.47
2019-04-30T17:28:01.166Z,18.15
2019-04-30T17:30:29.229Z,18.41
2019-04-30T17:32:59.564Z,18.32
2019-04-30T17:35:28.852Z,18.24
2019-04-30T17:37:57.429Z,18.21
2019-04-30T17:40:25.811Z,18.16
2019-04-30T17:42:54.234Z,17.96
2019-04-30T17:45:22.970Z,18.04
2019-04-30T17:47:51.483Z,18.01
2019-04-30T17:50:22.297Z,17.79
2019-04-30T17:52:50.087Z,17.79
2019-04-30T17:55:19.481Z,17.51
2019-04-30T17:57:48.779Z,17.66
2019-04-30T18:00:22.054Z,17.48
2019-04-30T18:02:48.442Z,17.14
2019-04-30T18:05:16.942Z,17.33
2019-04-30T18:07:45.431Z,17.30
2019-04-30T18:10:14.574Z,17.23
2019-04-30T18:12:43.054Z,17.31
2019-04-30T18:15:15.725Z,17.16
2019-04-30T18:17:45.884Z,17.08
2019-04-30T18:20:16.090Z,16.76
2019-04-30T18:23:02.508Z,16.82
2019-04-30T18:25:32.584Z,16.69
2019-04-30T18:28:02.447Z,16.65
2019-04-30T18:30:32.520Z,16.75
2019-04-30T18:33:00.944Z,16.72
2019-04-30T18:35:29.360Z,16.70
2019-04-30T18:37:58.609Z,16.57
2019-04-30T18:40:27.152Z,16.48
2019-04-30T18:42:55.573Z,16.45
2019-04-30T18:45:24.225Z,16.29
2019-04-30T18:47:52.787Z,16.16
2019-04-30T18:50:21.496Z,16.04
2019-04-30T18:52:51.761Z,15.89
2019-04-30T18:55:20.381Z,15.77
2019-04-30T18:57:56.298Z,15.67
2019-04-30T19:00:21.024Z,15.54
2019-04-30T19:02:49.433Z,15.44
2019-04-30T19:05:19.540Z,15.36
2019-04-30T19:07:59.121Z,15.30
2019-04-30T19:10:32.241Z,15.28
2019-04-30T19:13:02.386Z,15.11
2019-04-30T19:16:11.347Z,14.93
2019-04-30T19:18:10.411Z,14.84
2019-04-30T19:20:40.513Z,14.78
2019-04-30T19:23:10.151Z,14.70
2019-04-30T19:25:38.842Z,14.58
2019-04-30T19:28:14.002Z,14.51
2019-04-30T19:30:38.996Z,14.38
2019-04-30T19:33:08.692Z,14.29
2019-04-30T19:35:37.283Z,14.24
2019-04-30T19:38:06.112Z,14.17
2019-04-30T19:40:34.696Z,14.07
2019-04-30T19:43:03.145Z,14.04
2019-04-30T19:45:31.537Z,13.99
2019-04-30T19:47:59.975Z,13.84
2019-04-30T19:50:28.424Z,13.76
2019-04-30T19:52:58.640Z,13.74
2019-04-30T19:55:28.615Z,13.69
2019-04-30T19:57:57.241Z,13.65
2019-04-30T20:00:26.216Z,13.63
2019-04-30T20:02:57.248Z,13.70
2019-04-30T20:05:24.803Z,13.62
2019-04-30T20:07:53.210Z,13.53
2019-04-30T20:10:21.672Z,13.48
2019-04-30T20:12:50.080Z,13.38
2019-04-30T20:15:21.681Z,13.35
2019-04-30T20:17:49.898Z,13.30
2019-04-30T20:20:18.960Z,13.19
2019-04-30T20:22:47.460Z,13.14
2019-04-30T20:25:15.860Z,13.08
2019-04-30T20:27:44.366Z,13.04
2019-04-30T20:30:13.299Z,12.98
2019-04-30T20:32:41.706Z,12.95
2019-04-30T20:35:10.259Z,12.93
2019-04-30T20:37:56.999Z,12.90
2019-04-30T20:40:27.109Z,12.84
2019-04-30T20:42:55.511Z,12.83
2019-04-30T20:45:24.049Z,12.75
2019-04-30T20:47:52.490Z,12.74
2019-04-30T20:50:20.903Z,12.72
2019-04-30T20:52:49.323Z,12.71
2019-04-30T20:55:17.719Z,12.72
2019-04-30T20:57:46.142Z,12.71
2019-04-30T21:00:14.891Z,12.67
2019-04-30T21:02:43.387Z,12.74
2019-04-30T21:05:11.983Z,12.75
2019-04-30T21:07:40.410Z,12.67
2019-04-30T21:10:10.186Z,12.65
2019-04-30T21:12:39.668Z,12.61
2019-04-30T21:15:09.661Z,12.56
2019-04-30T21:17:38.148Z,12.53
2019-04-30T21:20:09.631Z,12.43
2019-04-30T21:22:38.848Z,12.37
2019-04-30T21:25:10.933Z,12.27
2019-04-30T21:27:40.126Z,12.19
2019-04-30T21:30:10.534Z,12.16
2019-04-30T21:32:56.659Z,12.09
2019-04-30T21:35:26.744Z,12.03
2019-04-30T21:37:56.839Z,11.97
2019-04-30T21:40:25.311Z,11.93
2019-04-30T21:42:53.833Z,11.91
2019-04-30T21:45:22.286Z,11.85
2019-04-30T21:47:56.350Z,11.78
2019-04-30T21:50:20.904Z,11.74
2019-04-30T21:52:49.615Z,11.69
2019-04-30T21:55:19.786Z,11.64
2019-04-30T21:57:49.624Z,11.62
2019-04-30T22:00:32.099Z,11.54
2019-04-30T22:03:00.506Z,11.62
2019-04-30T22:05:28.927Z,11.63
2019-04-30T22:07:59.187Z,11.68
2019-04-30T22:10:27.571Z,11.64
2019-04-30T22:12:56.062Z,11.63
2019-04-30T22:15:24.554Z,11.54
2019-04-30T22:17:53.023Z,11.66
2019-04-30T22:20:21.423Z,11.63
2019-04-30T22:22:49.920Z,11.62
2019-04-30T22:25:19.388Z,11.54
2019-04-30T22:27:47.837Z,11.49
2019-04-30T22:30:16.408Z,11.44
2019-04-30T22:32:44.817Z,11.34
2019-04-30T22:35:26.900Z,11.24
2019-04-30T22:37:59.409Z,11.12
2019-04-30T22:40:29.032Z,11.01
2019-04-30T22:42:59.350Z,11.00
2019-04-30T22:45:29.398Z,11.06
2019-04-30T22:47:58.921Z,11.10
2019-04-30T22:50:27.534Z,11.00
2019-04-30T22:52:55.976Z,10.99
2019-04-30T22:55:24.400Z,10.97
2019-04-30T22:57:52.836Z,10.88
2019-04-30T23:00:23.043Z,10.85
2019-04-30T23:02:53.104Z,10.81
2019-04-30T23:05:21.698Z,10.73
2019-04-30T23:07:50.141Z,10.64
2019-04-30T23:10:18.748Z,10.57
2019-04-30T23:12:47.289Z,10.51
2019-04-30T23:15:18.708Z,10.46
2019-04-30T23:17:47.156Z,10.46
2019-04-30T23:20:15.784Z,10.29
2019-04-30T23:22:44.253Z,10.17
2019-04-30T23:25:12.947Z,10.03
2019-04-30T23:27:41.509Z,9.98
2019-04-30T23:30:10.649Z,9.94
2019-04-30T23:32:39.092Z,9.95
2019-04-30T23:35:08.486Z,9.94
2019-04-30T23:37:36.947Z,9.89
2019-04-30T23:40:30.973Z,9.82
2019-04-30T23:42:59.815Z,9.80
2019-04-30T23:45:28.224Z,9.77
2019-04-30T23:47:56.656Z,9.76
2019-04-30T23:50:25.112Z,9.85
2019-04-30T23:52:53.638Z,9.90
2019-04-30T23:55:22.041Z,9.79
2019-04-30T23:57:50.480Z,9.71
